Airport View

Enter AWOS ICAO identifier for current METAR.

ex. KFNL

K2C8 202230Z AUTO 12006KT 1 3/4SM -SN OVC004 M00/M01 A2997 RMK AO2

20 Oct 2020 22:29

Frequency: 118.275

Phone: 701-265-8050

Other Area AWOS: K96D - KGAF - KHCO - CXMD

TAF KRDR 201800Z 2018/2124 13012G18KT 4800 -SN BKN005 650059 QNH2990INS TEMPO 2018/2024 0800 SN BECMG 2102/2103 27009KT 9999 NSW OVC010 620107 QNH2991INS BECMG 2106/2107 27009KT 9999 SCT020 QNH2999INS BECMG 2117/2118 28012KT 9999 BKN150 QNH3012INS TX00/2018Z TNM08/2112Z